sensor_id;sensor_type;location;lat;lon;timestamp;temperature;humidity
2447;DHT22;26430;48.818;9.244;2024-01-06T00:00:30;10.10;99.90
2447;DHT22;26430;48.818;9.244;2024-01-06T00:02:56;10.10;99.90
2447;DHT22;26430;48.818;9.244;2024-01-06T00:05:21;10.00;99.90
2447;DHT22;26430;48.818;9.244;2024-01-06T00:07:47;10.00;99.90
2447;DHT22;26430;48.818;9.244;2024-01-06T00:10:12;10.10;99.90
2447;DHT22;26430;48.818;9.244;2024-01-06T00:12:38;10.10;99.90
2447;DHT22;26430;48.818;9.244;2024-01-06T00:15:04;10.10;99.90
2447;DHT22;26430;48.818;9.244;2024-01-06T00:17:30;10.10;99.90
2447;DHT22;26430;48.818;9.244;2024-01-06T00:19:55;10.10;99.90
2447;DHT22;26430;48.818;9.244;2024-01-06T00:22:21;10.00;99.90
2447;DHT22;26430;48.818;9.244;2024-01-06T00:24:47;10.00;99.90
2447;DHT22;26430;48.818;9.244;2024-01-06T00:27:13;9.90;99.90
2447;DHT22;26430;48.818;9.244;2024-01-06T00:29:40;10.00;99.90
2447;DHT22;26430;48.818;9.244;2024-01-06T00:32:06;10.10;99.90
2447;DHT22;26430;48.818;9.244;2024-01-06T00:34:31;10.00;99.90
2447;DHT22;26430;48.818;9.244;2024-01-06T00:36:57;10.10;99.90
2447;DHT22;26430;48.818;9.244;2024-01-06T00:39:22;10.00;99.90
2447;DHT22;26430;48.818;9.244;2024-01-06T00:41:48;10.00;99.90
2447;DHT22;26430;48.818;9.244;2024-01-06T00:44:13;10.10;99.90
2447;DHT22;26430;48.818;9.244;2024-01-06T00:46:39;10.10;99.90
2447;DHT22;26430;48.818;9.244;2024-01-06T00:49:05;10.20;99.90
2447;DHT22;26430;48.818;9.244;2024-01-06T00:51:30;10.20;99.90
2447;DHT22;26430;48.818;9.244;2024-01-06T00:53:56;10.20;99.90
2447;DHT22;26430;48.818;9.244;2024-01-06T00:56:22;10.10;99.90
2447;DHT22;26430;48.818;9.244;2024-01-06T00:58:48;10.10;99.90
2447;DHT22;26430;48.818;9.244;2024-01-06T01:01:13;10.10;99.90
2447;DHT22;26430;48.818;9.244;2024-01-06T01:03:39;10.00;99.90
2447;DHT22;26430;48.818;9.244;2024-01-06T01:06:04;10.00;99.90
2447;DHT22;26430;48.818;9.244;2024-01-06T01:08:30;9.90;99.90
2447;DHT22;26430;48.818;9.244;2024-01-06T01:10:56;10.00;99.90
2447;DHT22;26430;48.818;9.244;2024-01-06T01:13:22;10.00;99.90
2447;DHT22;26430;48.818;9.244;2024-01-06T01:15:48;10.10;99.90
2447;DHT22;26430;48.818;9.244;2024-01-06T01:18:13;10.10;99.90
2447;DHT22;26430;48.818;9.244;2024-01-06T01:20:39;10.20;99.90
2447;DHT22;26430;48.818;9.244;2024-01-06T01:23:07;10.10;99.90
2447;DHT22;26430;48.818;9.244;2024-01-06T01:25:32;10.20;99.90
2447;DHT22;26430;48.818;9.244;2024-01-06T01:27:58;10.00;99.90
2447;DHT22;26430;48.818;9.244;2024-01-06T01:30:23;10.00;99.90
2447;DHT22;26430;48.818;9.244;2024-01-06T01:32:49;10.10;99.90
2447;DHT22;26430;48.818;9.244;2024-01-06T01:35:15;10.00;99.90
2447;DHT22;26430;48.818;9.244;2024-01-06T01:37:40;10.10;99.90
2447;DHT22;26430;48.818;9.244;2024-01-06T01:40:06;10.00;99.90
2447;DHT22;26430;48.818;9.244;2024-01-06T01:42:33;10.00;99.90
2447;DHT22;26430;48.818;9.244;2024-01-06T01:44:58;10.00;99.90
2447;DHT22;26430;48.818;9.244;2024-01-06T01:47:24;9.90;99.90
2447;DHT22;26430;48.818;9.244;2024-01-06T01:49:50;9.90;99.90
2447;DHT22;26430;48.818;9.244;2024-01-06T01:52:16;9.90;99.90
2447;DHT22;26430;48.818;9.244;2024-01-06T01:54:42;9.90;99.90
2447;DHT22;26430;48.818;9.244;2024-01-06T01:57:09;9.90;99.90
2447;DHT22;26430;48.818;9.244;2024-01-06T01:59:36;9.90;99.90
2447;DHT22;26430;48.818;9.244;2024-01-06T02:02:02;9.90;99.90
2447;DHT22;26430;48.818;9.244;2024-01-06T02:04:27;10.00;99.90
2447;DHT22;26430;48.818;9.244;2024-01-06T02:06:53;9.90;99.90
2447;DHT22;26430;48.818;9.244;2024-01-06T02:09:19;9.90;99.90
2447;DHT22;26430;48.818;9.244;2024-01-06T02:11:45;10.00;99.90
2447;DHT22;26430;48.818;9.244;2024-01-06T02:14:10;9.90;99.90
2447;DHT22;26430;48.818;9.244;2024-01-06T02:16:48;10.00;99.90
2447;DHT22;26430;48.818;9.244;2024-01-06T02:19:16;10.10;99.90
2447;DHT22;26430;48.818;9.244;2024-01-06T02:21:43;10.00;99.90
2447;DHT22;26430;48.818;9.244;2024-01-06T02:24:09;10.00;99.90
2447;DHT22;26430;48.818;9.244;2024-01-06T02:26:35;9.90;99.90
2447;DHT22;26430;48.818;9.244;2024-01-06T02:29:01;10.00;99.90
2447;DHT22;26430;48.818;9.244;2024-01-06T02:31:27;10.00;99.90
2447;DHT22;26430;48.818;9.244;2024-01-06T02:33:53;10.00;99.90
2447;DHT22;26430;48.818;9.244;2024-01-06T02:36:18;10.00;99.90
2447;DHT22;26430;48.818;9.244;2024-01-06T02:38:44;10.10;99.90
2447;DHT22;26430;48.818;9.244;2024-01-06T02:41:09;10.10;99.90
2447;DHT22;26430;48.818;9.244;2024-01-06T02:43:35;10.20;99.90
2447;DHT22;26430;48.818;9.244;2024-01-06T02:46:00;10.10;99.90
2447;DHT22;26430;48.818;9.244;2024-01-06T02:48:26;10.10;99.90
2447;DHT22;26430;48.818;9.244;2024-01-06T02:50:52;10.10;99.90
2447;DHT22;26430;48.818;9.244;2024-01-06T02:53:17;10.10;99.90
2447;DHT22;26430;48.818;9.244;2024-01-06T02:55:43;10.20;99.90
2447;DHT22;26430;48.818;9.244;2024-01-06T02:58:08;10.10;99.90
2447;DHT22;26430;48.818;9.244;2024-01-06T03:00:34;10.10;99.90
2447;DHT22;26430;48.818;9.244;2024-01-06T03:02:59;10.10;99.90
2447;DHT22;26430;48.818;9.244;2024-01-06T03:05:25;10.20;99.90
2447;DHT22;26430;48.818;9.244;2024-01-06T03:07:50;10.20;99.90
2447;DHT22;26430;48.818;9.244;2024-01-06T03:10:16;10.10;99.90
2447;DHT22;26430;48.818;9.244;2024-01-06T03:12:41;10.00;99.90
2447;DHT22;26430;48.818;9.244;2024-01-06T03:15:07;10.00;99.90
2447;DHT22;26430;48.818;9.244;2024-01-06T03:17:33;10.00;99.90
2447;DHT22;26430;48.818;9.244;2024-01-06T03:19:58;10.00;99.90
2447;DHT22;26430;48.818;9.244;2024-01-06T03:22:24;10.00;99.90
2447;DHT22;26430;48.818;9.244;2024-01-06T03:24:49;10.10;99.90
2447;DHT22;26430;48.818;9.244;2024-01-06T03:27:15;10.10;99.90
2447;DHT22;26430;48.818;9.244;2024-01-06T03:29:40;10.10;99.90
2447;DHT22;26430;48.818;9.244;2024-01-06T03:32:06;10.10;99.90
2447;DHT22;26430;48.818;9.244;2024-01-06T03:34:32;10.00;99.90
2447;DHT22;26430;48.818;9.244;2024-01-06T03:36:57;10.00;99.90
2447;DHT22;26430;48.818;9.244;2024-01-06T03:39:23;9.90;99.90
2447;DHT22;26430;48.818;9.244;2024-01-06T03:41:48;9.80;99.90
2447;DHT22;26430;48.818;9.244;2024-01-06T03:44:14;9.70;99.90
2447;DHT22;26430;48.818;9.244;2024-01-06T03:46:40;9.80;99.90
2447;DHT22;26430;48.818;9.244;2024-01-06T03:49:05;9.70;99.90
2447;DHT22;26430;48.818;9.244;2024-01-06T03:51:31;9.80;99.90
2447;DHT22;26430;48.818;9.244;2024-01-06T03:53:56;9.80;99.90
2447;DHT22;26430;48.818;9.244;2024-01-06T03:56:22;9.80;99.90
2447;DHT22;26430;48.818;9.244;2024-01-06T03:58:47;9.80;99.90
2447;DHT22;26430;48.818;9.244;2024-01-06T04:01:13;9.80;99.90
2447;DHT22;26430;48.818;9.244;2024-01-06T04:03:39;9.80;99.90
2447;DHT22;26430;48.818;9.244;2024-01-06T04:06:07;9.80;99.90
2447;DHT22;26430;48.818;9.244;2024-01-06T04:08:33;9.80;99.90
2447;DHT22;26430;48.818;9.244;2024-01-06T04:10:59;9.80;99.90
2447;DHT22;26430;48.818;9.244;2024-01-06T04:13:24;9.90;99.90
2447;DHT22;26430;48.818;9.244;2024-01-06T04:15:51;9.80;99.90
2447;DHT22;26430;48.818;9.244;2024-01-06T04:18:17;9.80;99.90
2447;DHT22;26430;48.818;9.244;2024-01-06T04:20:42;9.80;99.90
2447;DHT22;26430;48.818;9.244;2024-01-06T04:23:08;9.90;99.90
2447;DHT22;26430;48.818;9.244;2024-01-06T04:25:33;9.90;99.90
2447;DHT22;26430;48.818;9.244;2024-01-06T04:27:59;9.90;99.90
2447;DHT22;26430;48.818;9.244;2024-01-06T04:30:24;9.90;99.90
2447;DHT22;26430;48.818;9.244;2024-01-06T04:32:51;9.80;99.90
2447;DHT22;26430;48.818;9.244;2024-01-06T04:35:17;10.00;99.90
2447;DHT22;26430;48.818;9.244;2024-01-06T04:37:42;10.00;99.90
2447;DHT22;26430;48.818;9.244;2024-01-06T04:40:08;9.90;99.90
2447;DHT22;26430;48.818;9.244;2024-01-06T04:42:34;9.90;99.90
2447;DHT22;26430;48.818;9.244;2024-01-06T04:45:00;9.90;99.90
2447;DHT22;26430;48.818;9.244;2024-01-06T04:47:25;9.90;99.90
2447;DHT22;26430;48.818;9.244;2024-01-06T04:49:52;9.90;99.90
2447;DHT22;26430;48.818;9.244;2024-01-06T04:52:17;9.90;99.90
2447;DHT22;26430;48.818;9.244;2024-01-06T04:54:43;9.90;99.90
2447;DHT22;26430;48.818;9.244;2024-01-06T04:57:08;9.80;99.90
2447;DHT22;26430;48.818;9.244;2024-01-06T04:59:34;9.80;99.90
2447;DHT22;26430;48.818;9.244;2024-01-06T05:02:00;9.80;99.90
2447;DHT22;26430;48.818;9.244;2024-01-06T05:04:26;9.70;99.90
2447;DHT22;26430;48.818;9.244;2024-01-06T05:06:51;9.80;99.90
2447;DHT22;26430;48.818;9.244;2024-01-06T05:09:17;9.80;99.90
2447;DHT22;26430;48.818;9.244;2024-01-06T05:11:44;9.80;99.90
2447;DHT22;26430;48.818;9.244;2024-01-06T05:14:09;9.80;99.90
2447;DHT22;26430;48.818;9.244;2024-01-06T05:16:35;9.70;99.90
2447;DHT22;26430;48.818;9.244;2024-01-06T05:19:00;9.80;99.90
2447;DHT22;26430;48.818;9.244;2024-01-06T05:21:26;9.80;99.90
2447;DHT22;26430;48.818;9.244;2024-01-06T05:23:51;9.70;99.90
2447;DHT22;26430;48.818;9.244;2024-01-06T05:26:17;9.70;99.90
2447;DHT22;26430;48.818;9.244;2024-01-06T05:28:42;9.80;99.90
2447;DHT22;26430;48.818;9.244;2024-01-06T05:31:08;9.70;99.90
2447;DHT22;26430;48.818;9.244;2024-01-06T05:33:34;9.70;99.90
2447;DHT22;26430;48.818;9.244;2024-01-06T05:35:59;9.70;99.90
2447;DHT22;26430;48.818;9.244;2024-01-06T05:38:25;9.70;99.90
2447;DHT22;26430;48.818;9.244;2024-01-06T05:40:50;9.70;99.90
2447;DHT22;26430;48.818;9.244;2024-01-06T05:43:16;9.70;99.90
2447;DHT22;26430;48.818;9.244;2024-01-06T05:45:41;9.70;99.90
2447;DHT22;26430;48.818;9.244;2024-01-06T05:48:11;9.70;99.90
2447;DHT22;26430;48.818;9.244;2024-01-06T05:50:38;9.70;99.90
2447;DHT22;26430;48.818;9.244;2024-01-06T05:53:04;9.60;99.90
2447;DHT22;26430;48.818;9.244;2024-01-06T05:55:30;9.60;99.90
2447;DHT22;26430;48.818;9.244;2024-01-06T05:57:55;9.60;99.90
2447;DHT22;26430;48.818;9.244;2024-01-06T06:00:21;9.60;99.90
2447;DHT22;26430;48.818;9.244;2024-01-06T06:02:46;9.70;99.90
2447;DHT22;26430;48.818;9.244;2024-01-06T06:05:12;9.70;99.90
2447;DHT22;26430;48.818;9.244;2024-01-06T06:07:38;9.70;99.90
2447;DHT22;26430;48.818;9.244;2024-01-06T06:10:08;9.60;99.90
2447;DHT22;26430;48.818;9.244;2024-01-06T06:12:34;9.70;99.90
2447;DHT22;26430;48.818;9.244;2024-01-06T06:15:00;9.70;99.90
2447;DHT22;26430;48.818;9.244;2024-01-06T06:17:26;9.60;99.90
2447;DHT22;26430;48.818;9.244;2024-01-06T06:19:52;9.70;99.90
2447;DHT22;26430;48.818;9.244;2024-01-06T06:22:17;9.80;99.90
2447;DHT22;26430;48.818;9.244;2024-01-06T06:24:43;9.70;99.90
2447;DHT22;26430;48.818;9.244;2024-01-06T06:27:08;9.60;99.90
2447;DHT22;26430;48.818;9.244;2024-01-06T06:29:34;9.60;99.90
2447;DHT22;26430;48.818;9.244;2024-01-06T06:32:00;9.70;99.90
2447;DHT22;26430;48.818;9.244;2024-01-06T06:34:25;9.80;99.90
2447;DHT22;26430;48.818;9.244;2024-01-06T06:36:51;9.90;99.90
2447;DHT22;26430;48.818;9.244;2024-01-06T06:39:17;9.80;99.90
2447;DHT22;26430;48.818;9.244;2024-01-06T06:41:43;9.80;99.90
2447;DHT22;26430;48.818;9.244;2024-01-06T06:44:09;9.80;99.90
2447;DHT22;26430;48.818;9.244;2024-01-06T06:46:36;9.70;99.90
2447;DHT22;26430;48.818;9.244;2024-01-06T06:49:01;9.60;99.90
2447;DHT22;26430;48.818;9.244;2024-01-06T06:51:27;9.60;99.90
2447;DHT22;26430;48.818;9.244;2024-01-06T06:53:54;9.70;99.90
2447;DHT22;26430;48.818;9.244;2024-01-06T06:56:19;9.80;99.90
2447;DHT22;26430;48.818;9.244;2024-01-06T06:58:45;9.70;99.90
2447;DHT22;26430;48.818;9.244;2024-01-06T07:01:10;9.90;99.90
2447;DHT22;26430;48.818;9.244;2024-01-06T07:03:36;9.90;99.90
2447;DHT22;26430;48.818;9.244;2024-01-06T07:06:02;9.90;99.90
2447;DHT22;26430;48.818;9.244;2024-01-06T07:08:27;9.80;99.90
2447;DHT22;26430;48.818;9.244;2024-01-06T07:10:53;9.80;99.90
2447;DHT22;26430;48.818;9.244;2024-01-06T07:13:18;9.70;99.90
2447;DHT22;26430;48.818;9.244;2024-01-06T07:15:44;9.80;99.90
2447;DHT22;26430;48.818;9.244;2024-01-06T07:18:10;10.00;99.90
2447;DHT22;26430;48.818;9.244;2024-01-06T07:20:36;10.00;99.90
2447;DHT22;26430;48.818;9.244;2024-01-06T07:23:02;10.10;99.90
2447;DHT22;26430;48.818;9.244;2024-01-06T07:25:28;10.00;99.90
2447;DHT22;26430;48.818;9.244;2024-01-06T07:27:55;10.10;99.90
2447;DHT22;26430;48.818;9.244;2024-01-06T07:30:21;10.10;99.90
2447;DHT22;26430;48.818;9.244;2024-01-06T07:32:46;10.10;99.90
2447;DHT22;26430;48.818;9.244;2024-01-06T07:35:13;10.20;99.90
2447;DHT22;26430;48.818;9.244;2024-01-06T07:37:39;10.20;99.90
2447;DHT22;26430;48.818;9.244;2024-01-06T07:40:05;10.30;99.90
2447;DHT22;26430;48.818;9.244;2024-01-06T07:42:30;10.10;99.90
2447;DHT22;26430;48.818;9.244;2024-01-06T07:44:57;10.10;99.90
2447;DHT22;26430;48.818;9.244;2024-01-06T07:47:22;10.10;99.90
2447;DHT22;26430;48.818;9.244;2024-01-06T07:49:48;10.20;99.90
2447;DHT22;26430;48.818;9.244;2024-01-06T07:52:13;10.00;99.90
2447;DHT22;26430;48.818;9.244;2024-01-06T07:54:39;10.10;99.90
2447;DHT22;26430;48.818;9.244;2024-01-06T07:57:04;10.10;99.90
2447;DHT22;26430;48.818;9.244;2024-01-06T07:59:30;10.10;99.90
2447;DHT22;26430;48.818;9.244;2024-01-06T08:01:56;10.00;99.90
2447;DHT22;26430;48.818;9.244;2024-01-06T08:04:21;10.00;99.90
2447;DHT22;26430;48.818;9.244;2024-01-06T08:06:47;10.10;99.90
2447;DHT22;26430;48.818;9.244;2024-01-06T08:09:12;10.10;99.90
2447;DHT22;26430;48.818;9.244;2024-01-06T08:11:38;10.20;99.90
2447;DHT22;26430;48.818;9.244;2024-01-06T08:14:04;10.20;99.90
2447;DHT22;26430;48.818;9.244;2024-01-06T08:16:29;10.40;99.90
2447;DHT22;26430;48.818;9.244;2024-01-06T08:18:55;10.40;99.90
2447;DHT22;26430;48.818;9.244;2024-01-06T08:21:21;10.20;99.90
2447;DHT22;26430;48.818;9.244;2024-01-06T08:23:46;10.30;99.90
2447;DHT22;26430;48.818;9.244;2024-01-06T08:26:12;10.30;99.90
2447;DHT22;26430;48.818;9.244;2024-01-06T08:28:37;10.20;99.90
2447;DHT22;26430;48.818;9.244;2024-01-06T08:31:03;10.30;99.90
2447;DHT22;26430;48.818;9.244;2024-01-06T08:33:29;10.10;99.90
2447;DHT22;26430;48.818;9.244;2024-01-06T08:35:55;10.10;99.90
2447;DHT22;26430;48.818;9.244;2024-01-06T08:38:20;10.10;99.90
2447;DHT22;26430;48.818;9.244;2024-01-06T08:40:47;10.30;99.90
2447;DHT22;26430;48.818;9.244;2024-01-06T08:43:15;10.20;99.90
2447;DHT22;26430;48.818;9.244;2024-01-06T08:45:41;10.10;99.90
2447;DHT22;26430;48.818;9.244;2024-01-06T08:48:07;10.00;99.90
2447;DHT22;26430;48.818;9.244;2024-01-06T08:50:32;9.90;99.90
2447;DHT22;26430;48.818;9.244;2024-01-06T08:52:58;10.10;99.90
2447;DHT22;26430;48.818;9.244;2024-01-06T08:55:24;10.10;99.90
2447;DHT22;26430;48.818;9.244;2024-01-06T08:57:49;10.00;99.90
2447;DHT22;26430;48.818;9.244;2024-01-06T09:00:15;10.00;99.90
2447;DHT22;26430;48.818;9.244;2024-01-06T09:02:41;10.10;99.90
2447;DHT22;26430;48.818;9.244;2024-01-06T09:05:07;10.10;99.90
2447;DHT22;26430;48.818;9.244;2024-01-06T09:07:32;10.10;99.90
2447;DHT22;26430;48.818;9.244;2024-01-06T09:09:58;10.10;99.90
2447;DHT22;26430;48.818;9.244;2024-01-06T09:12:24;10.10;99.90
2447;DHT22;26430;48.818;9.244;2024-01-06T09:14:50;10.10;99.90
2447;DHT22;26430;48.818;9.244;2024-01-06T09:17:15;10.10;99.90
2447;DHT22;26430;48.818;9.244;2024-01-06T09:19:41;10.20;99.90
2447;DHT22;26430;48.818;9.244;2024-01-06T09:22:07;10.20;99.90
2447;DHT22;26430;48.818;9.244;2024-01-06T09:24:32;10.20;99.90
2447;DHT22;26430;48.818;9.244;2024-01-06T09:26:59;10.20;99.90
2447;DHT22;26430;48.818;9.244;2024-01-06T09:29:24;10.30;99.90
2447;DHT22;26430;48.818;9.244;2024-01-06T09:31:50;10.30;99.90
2447;DHT22;26430;48.818;9.244;2024-01-06T09:34:16;10.40;99.90
2447;DHT22;26430;48.818;9.244;2024-01-06T09:36:41;10.40;99.90
2447;DHT22;26430;48.818;9.244;2024-01-06T09:39:07;10.30;99.90
2447;DHT22;26430;48.818;9.244;2024-01-06T09:41:33;10.20;99.90
2447;DHT22;26430;48.818;9.244;2024-01-06T09:43:59;10.10;99.90
2447;DHT22;26430;48.818;9.244;2024-01-06T09:46:26;10.10;99.90
2447;DHT22;26430;48.818;9.244;2024-01-06T09:48:52;10.10;99.90
2447;DHT22;26430;48.818;9.244;2024-01-06T09:51:19;10.20;99.90
2447;DHT22;26430;48.818;9.244;2024-01-06T09:53:51;10.20;99.90
2447;DHT22;26430;48.818;9.244;2024-01-06T09:56:18;10.20;99.90
2447;DHT22;26430;48.818;9.244;2024-01-06T09:58:44;10.30;99.90
2447;DHT22;26430;48.818;9.244;2024-01-06T10:01:11;10.30;99.90
2447;DHT22;26430;48.818;9.244;2024-01-06T10:03:37;10.30;99.90
2447;DHT22;26430;48.818;9.244;2024-01-06T10:06:03;10.20;99.90
2447;DHT22;26430;48.818;9.244;2024-01-06T10:08:30;10.30;99.90
2447;DHT22;26430;48.818;9.244;2024-01-06T10:10:59;10.30;99.90
2447;DHT22;26430;48.818;9.244;2024-01-06T10:13:25;10.30;99.90
2447;DHT22;26430;48.818;9.244;2024-01-06T10:15:50;10.40;99.90
2447;DHT22;26430;48.818;9.244;2024-01-06T10:18:16;10.40;99.90
2447;DHT22;26430;48.818;9.244;2024-01-06T10:20:44;10.50;99.90
2447;DHT22;26430;48.818;9.244;2024-01-06T10:23:10;10.50;99.90
2447;DHT22;26430;48.818;9.244;2024-01-06T10:25:35;10.30;99.90
2447;DHT22;26430;48.818;9.244;2024-01-06T10:28:01;10.30;99.90
2447;DHT22;26430;48.818;9.244;2024-01-06T10:30:28;10.20;99.90
2447;DHT22;26430;48.818;9.244;2024-01-06T10:32:54;10.30;99.90
2447;DHT22;26430;48.818;9.244;2024-01-06T10:35:19;10.20;99.90
2447;DHT22;26430;48.818;9.244;2024-01-06T10:37:45;10.20;99.90
2447;DHT22;26430;48.818;9.244;2024-01-06T10:40:14;10.30;99.90
2447;DHT22;26430;48.818;9.244;2024-01-06T10:42:44;10.20;99.90
2447;DHT22;26430;48.818;9.244;2024-01-06T10:45:12;10.20;99.90
2447;DHT22;26430;48.818;9.244;2024-01-06T10:47:38;10.20;99.90
2447;DHT22;26430;48.818;9.244;2024-01-06T10:50:05;10.20;99.90
2447;DHT22;26430;48.818;9.244;2024-01-06T10:52:31;10.20;99.90
2447;DHT22;26430;48.818;9.244;2024-01-06T10:54:57;10.10;99.90
2447;DHT22;26430;48.818;9.244;2024-01-06T10:57:23;10.10;99.90
2447;DHT22;26430;48.818;9.244;2024-01-06T10:59:50;10.10;99.90
2447;DHT22;26430;48.818;9.244;2024-01-06T11:02:16;10.10;99.90
2447;DHT22;26430;48.818;9.244;2024-01-06T11:04:44;10.10;99.90
2447;DHT22;26430;48.818;9.244;2024-01-06T11:07:11;10.10;99.90
2447;DHT22;26430;48.818;9.244;2024-01-06T11:09:39;10.20;99.90
2447;DHT22;26430;48.818;9.244;2024-01-06T11:12:07;10.20;99.90
2447;DHT22;26430;48.818;9.244;2024-01-06T11:14:37;10.20;99.90
2447;DHT22;26430;48.818;9.244;2024-01-06T11:17:03;10.10;99.90
2447;DHT22;26430;48.818;9.244;2024-01-06T11:24:48;10.20;99.90
2447;DHT22;26430;48.818;9.244;2024-01-06T11:27:23;10.20;99.90
2447;DHT22;26430;48.818;9.244;2024-01-06T11:29:51;10.30;99.90
2447;DHT22;26430;48.818;9.244;2024-01-06T11:32:18;10.30;99.90
2447;DHT22;26430;48.818;9.244;2024-01-06T11:34:48;10.40;99.90
2447;DHT22;26430;48.818;9.244;2024-01-06T11:37:16;10.40;99.90
2447;DHT22;26430;48.818;9.244;2024-01-06T11:39:42;10.30;99.90
2447;DHT22;26430;48.818;9.244;2024-01-06T11:42:10;10.30;99.90
2447;DHT22;26430;48.818;9.244;2024-01-06T11:44:40;10.30;99.90
2447;DHT22;26430;48.818;9.244;2024-01-06T11:47:11;10.30;99.90
2447;DHT22;26430;48.818;9.244;2024-01-06T11:49:37;10.30;99.90
2447;DHT22;26430;48.818;9.244;2024-01-06T11:52:03;10.40;99.90
2447;DHT22;26430;48.818;9.244;2024-01-06T11:54:28;10.30;99.90
2447;DHT22;26430;48.818;9.244;2024-01-06T11:56:54;10.30;99.90
2447;DHT22;26430;48.818;9.244;2024-01-06T11:59:21;10.20;99.90
2447;DHT22;26430;48.818;9.244;2024-01-06T12:01:47;10.30;99.90
2447;DHT22;26430;48.818;9.244;2024-01-06T12:04:15;10.20;99.90
2447;DHT22;26430;48.818;9.244;2024-01-06T12:06:41;10.20;99.90
2447;DHT22;26430;48.818;9.244;2024-01-06T12:09:10;10.30;99.90
2447;DHT22;26430;48.818;9.244;2024-01-06T12:11:36;10.30;99.90
2447;DHT22;26430;48.818;9.244;2024-01-06T12:14:05;10.10;99.90
2447;DHT22;26430;48.818;9.244;2024-01-06T12:16:31;10.20;99.90
2447;DHT22;26430;48.818;9.244;2024-01-06T12:18:59;10.20;99.90
2447;DHT22;26430;48.818;9.244;2024-01-06T12:21:27;10.20;99.90
2447;DHT22;26430;48.818;9.244;2024-01-06T12:23:52;10.10;99.90
2447;DHT22;26430;48.818;9.244;2024-01-06T12:26:18;10.10;99.90
2447;DHT22;26430;48.818;9.244;2024-01-06T12:28:54;10.10;99.90
2447;DHT22;26430;48.818;9.244;2024-01-06T12:31:19;10.20;99.90
2447;DHT22;26430;48.818;9.244;2024-01-06T12:33:46;10.20;99.90
2447;DHT22;26430;48.818;9.244;2024-01-06T12:36:11;10.20;99.90
2447;DHT22;26430;48.818;9.244;2024-01-06T12:38:37;10.30;99.90
2447;DHT22;26430;48.818;9.244;2024-01-06T12:41:04;10.20;99.90
2447;DHT22;26430;48.818;9.244;2024-01-06T12:43:30;10.20;99.90
2447;DHT22;26430;48.818;9.244;2024-01-06T12:45:55;10.10;99.90
2447;DHT22;26430;48.818;9.244;2024-01-06T12:48:23;10.10;99.90
2447;DHT22;26430;48.818;9.244;2024-01-06T12:50:49;10.20;99.90
2447;DHT22;26430;48.818;9.244;2024-01-06T12:53:14;10.20;99.90
2447;DHT22;26430;48.818;9.244;2024-01-06T12:55:44;10.10;99.90
2447;DHT22;26430;48.818;9.244;2024-01-06T12:58:09;10.10;99.90
2447;DHT22;26430;48.818;9.244;2024-01-06T13:00:35;10.10;99.90
2447;DHT22;26430;48.818;9.244;2024-01-06T13:03:01;10.00;99.90
2447;DHT22;26430;48.818;9.244;2024-01-06T13:05:26;10.00;99.90
2447;DHT22;26430;48.818;9.244;2024-01-06T13:07:52;10.00;99.90
2447;DHT22;26430;48.818;9.244;2024-01-06T13:10:17;10.10;99.90
2447;DHT22;26430;48.818;9.244;2024-01-06T13:12:43;10.00;99.90
2447;DHT22;26430;48.818;9.244;2024-01-06T13:15:09;10.00;99.90
2447;DHT22;26430;48.818;9.244;2024-01-06T13:17:37;10.10;99.90
2447;DHT22;26430;48.818;9.244;2024-01-06T13:20:03;10.20;99.90
2447;DHT22;26430;48.818;9.244;2024-01-06T13:22:28;10.10;99.90
2447;DHT22;26430;48.818;9.244;2024-01-06T13:24:54;10.20;99.90
2447;DHT22;26430;48.818;9.244;2024-01-06T13:27:20;10.20;99.90
2447;DHT22;26430;48.818;9.244;2024-01-06T13:29:45;10.30;99.90
2447;DHT22;26430;48.818;9.244;2024-01-06T13:32:11;10.20;99.90
2447;DHT22;26430;48.818;9.244;2024-01-06T13:34:36;10.10;99.90
2447;DHT22;26430;48.818;9.244;2024-01-06T13:37:03;10.00;99.90
2447;DHT22;26430;48.818;9.244;2024-01-06T13:39:29;10.00;99.90
2447;DHT22;26430;48.818;9.244;2024-01-06T13:42:01;10.10;99.90
2447;DHT22;26430;48.818;9.244;2024-01-06T13:44:28;10.00;99.90
2447;DHT22;26430;48.818;9.244;2024-01-06T13:46:54;9.90;99.90
2447;DHT22;26430;48.818;9.244;2024-01-06T13:49:21;10.00;99.90
2447;DHT22;26430;48.818;9.244;2024-01-06T13:51:46;10.00;99.90
2447;DHT22;26430;48.818;9.244;2024-01-06T13:54:12;10.10;99.90
2447;DHT22;26430;48.818;9.244;2024-01-06T13:56:38;10.00;99.90
2447;DHT22;26430;48.818;9.244;2024-01-06T13:59:03;9.90;99.90
2447;DHT22;26430;48.818;9.244;2024-01-06T14:01:29;10.00;99.90
2447;DHT22;26430;48.818;9.244;2024-01-06T14:03:55;10.00;99.90
2447;DHT22;26430;48.818;9.244;2024-01-06T14:06:26;9.90;99.90
2447;DHT22;26430;48.818;9.244;2024-01-06T14:08:59;9.90;99.90
2447;DHT22;26430;48.818;9.244;2024-01-06T14:11:25;9.80;99.90
2447;DHT22;26430;48.818;9.244;2024-01-06T14:13:52;9.80;99.90
2447;DHT22;26430;48.818;9.244;2024-01-06T14:16:18;9.90;99.90
2447;DHT22;26430;48.818;9.244;2024-01-06T14:18:44;10.00;99.90
2447;DHT22;26430;48.818;9.244;2024-01-06T14:21:10;10.10;99.90
2447;DHT22;26430;48.818;9.244;2024-01-06T14:23:38;9.90;99.90
2447;DHT22;26430;48.818;9.244;2024-01-06T14:26:04;10.00;99.90
2447;DHT22;26430;48.818;9.244;2024-01-06T14:28:29;9.80;99.90
2447;DHT22;26430;48.818;9.244;2024-01-06T14:30:55;9.80;99.90
2447;DHT22;26430;48.818;9.244;2024-01-06T14:33:21;9.80;99.90
2447;DHT22;26430;48.818;9.244;2024-01-06T14:35:47;9.90;99.90
2447;DHT22;26430;48.818;9.244;2024-01-06T14:38:13;9.90;99.90
2447;DHT22;26430;48.818;9.244;2024-01-06T14:40:38;9.90;99.90
2447;DHT22;26430;48.818;9.244;2024-01-06T14:43:04;10.00;99.90
2447;DHT22;26430;48.818;9.244;2024-01-06T14:45:30;9.80;99.90
2447;DHT22;26430;48.818;9.244;2024-01-06T14:47:56;9.90;99.90
2447;DHT22;26430;48.818;9.244;2024-01-06T14:50:22;9.80;99.90
2447;DHT22;26430;48.818;9.244;2024-01-06T14:52:47;9.80;99.90
2447;DHT22;26430;48.818;9.244;2024-01-06T14:55:14;9.80;99.90
2447;DHT22;26430;48.818;9.244;2024-01-06T14:57:39;9.80;99.90
2447;DHT22;26430;48.818;9.244;2024-01-06T15:00:06;9.90;99.90
2447;DHT22;26430;48.818;9.244;2024-01-06T15:02:32;9.80;99.90
2447;DHT22;26430;48.818;9.244;2024-01-06T15:04:57;9.80;99.90
2447;DHT22;26430;48.818;9.244;2024-01-06T15:07:23;9.70;99.90
2447;DHT22;26430;48.818;9.244;2024-01-06T15:09:49;9.80;99.90
2447;DHT22;26430;48.818;9.244;2024-01-06T15:12:15;9.80;99.90
2447;DHT22;26430;48.818;9.244;2024-01-06T15:14:41;9.90;99.90
2447;DHT22;26430;48.818;9.244;2024-01-06T15:17:07;9.80;99.90
2447;DHT22;26430;48.818;9.244;2024-01-06T15:19:32;9.80;99.90
2447;DHT22;26430;48.818;9.244;2024-01-06T15:21:59;9.70;99.90
2447;DHT22;26430;48.818;9.244;2024-01-06T15:24:24;9.80;99.90
2447;DHT22;26430;48.818;9.244;2024-01-06T15:26:50;9.70;99.90
2447;DHT22;26430;48.818;9.244;2024-01-06T15:29:17;9.70;99.90
2447;DHT22;26430;48.818;9.244;2024-01-06T15:31:42;9.80;99.90
2447;DHT22;26430;48.818;9.244;2024-01-06T15:34:08;9.80;99.90
2447;DHT22;26430;48.818;9.244;2024-01-06T15:36:34;9.70;99.90
2447;DHT22;26430;48.818;9.244;2024-01-06T15:38:59;9.80;99.90
2447;DHT22;26430;48.818;9.244;2024-01-06T15:41:25;9.70;99.90
2447;DHT22;26430;48.818;9.244;2024-01-06T15:43:50;9.70;99.90
2447;DHT22;26430;48.818;9.244;2024-01-06T15:46:16;9.70;99.90
2447;DHT22;26430;48.818;9.244;2024-01-06T15:48:42;9.70;99.90